sensor_id;sensor_type;location;lat;lon;timestamp;P1;durP1;ratioP1;P2;durP2;ratioP2
23206;SDS011;11773;52.570;13.052;2023-03-17T00:00:52;2.33;;;1.67;;
23206;SDS011;11773;52.570;13.052;2023-03-17T00:03:23;3.03;;;2.17;;
23206;SDS011;11773;52.570;13.052;2023-03-17T00:05:56;3.70;;;2.33;;
23206;SDS011;11773;52.570;13.052;2023-03-17T00:08:28;2.83;;;2.20;;
23206;SDS011;11773;52.570;13.052;2023-03-17T00:11:00;3.63;;;2.27;;
23206;SDS011;11773;52.570;13.052;2023-03-17T00:13:30;2.53;;;2.03;;
23206;SDS011;11773;52.570;13.052;2023-03-17T00:16:02;2.50;;;2.20;;
23206;SDS011;11773;52.570;13.052;2023-03-17T00:18:34;4.20;;;2.10;;
23206;SDS011;11773;52.570;13.052;2023-03-17T00:21:05;4.97;;;2.67;;
23206;SDS011;11773;52.570;13.052;2023-03-17T00:23:41;2.70;;;2.20;;
23206;SDS011;11773;52.570;13.052;2023-03-17T00:26:14;2.70;;;2.20;;
23206;SDS011;11773;52.570;13.052;2023-03-17T00:28:45;3.10;;;2.27;;
23206;SDS011;11773;52.570;13.052;2023-03-17T00:31:15;2.87;;;2.30;;
23206;SDS011;11773;52.570;13.052;2023-03-17T00:33:48;3.17;;;2.30;;
23206;SDS011;11773;52.570;13.052;2023-03-17T00:36:22;2.93;;;2.03;;
23206;SDS011;11773;52.570;13.052;2023-03-17T00:38:55;3.03;;;1.80;;
23206;SDS011;11773;52.570;13.052;2023-03-17T00:41:25;2.50;;;2.10;;
23206;SDS011;11773;52.570;13.052;2023-03-17T00:43:55;3.27;;;2.20;;
23206;SDS011;11773;52.570;13.052;2023-03-17T00:46:28;2.63;;;2.10;;
23206;SDS011;11773;52.570;13.052;2023-03-17T00:49:17;2.40;;;2.10;;
23206;SDS011;11773;52.570;13.052;2023-03-17T00:51:49;4.67;;;2.70;;
23206;SDS011;11773;52.570;13.052;2023-03-17T00:54:20;2.43;;;2.20;;
23206;SDS011;11773;52.570;13.052;2023-03-17T00:56:49;3.23;;;2.30;;
23206;SDS011;11773;52.570;13.052;2023-03-17T00:59:26;2.70;;;2.07;;
23206;SDS011;11773;52.570;13.052;2023-03-17T01:01:59;3.07;;;2.50;;
23206;SDS011;11773;52.570;13.052;2023-03-17T01:04:29;3.60;;;2.30;;
23206;SDS011;11773;52.570;13.052;2023-03-17T01:06:59;5.23;;;2.60;;
23206;SDS011;11773;52.570;13.052;2023-03-17T01:09:29;3.13;;;2.20;;
23206;SDS011;11773;52.570;13.052;2023-03-17T01:11:59;2.83;;;2.00;;
23206;SDS011;11773;52.570;13.052;2023-03-17T01:14:29;2.73;;;2.30;;
23206;SDS011;11773;52.570;13.052;2023-03-17T01:16:58;3.87;;;2.40;;
23206;SDS011;11773;52.570;13.052;2023-03-17T01:19:28;3.87;;;2.23;;
23206;SDS011;11773;52.570;13.052;2023-03-17T01:21:57;1.90;;;1.70;;
23206;SDS011;11773;52.570;13.052;2023-03-17T01:24:27;3.23;;;2.33;;
23206;SDS011;11773;52.570;13.052;2023-03-17T01:26:57;2.50;;;2.10;;
23206;SDS011;11773;52.570;13.052;2023-03-17T01:29:27;3.23;;;2.07;;
23206;SDS011;11773;52.570;13.052;2023-03-17T01:31:56;2.67;;;2.20;;
23206;SDS011;11773;52.570;13.052;2023-03-17T01:34:26;2.53;;;1.90;;
23206;SDS011;11773;52.570;13.052;2023-03-17T01:36:55;2.57;;;2.20;;
23206;SDS011;11773;52.570;13.052;2023-03-17T01:39:25;4.43;;;2.50;;
23206;SDS011;11773;52.570;13.052;2023-03-17T01:41:57;2.80;;;2.17;;
23206;SDS011;11773;52.570;13.052;2023-03-17T01:44:27;3.13;;;2.30;;
23206;SDS011;11773;52.570;13.052;2023-03-17T01:46:56;3.20;;;2.13;;
23206;SDS011;11773;52.570;13.052;2023-03-17T01:49:27;2.97;;;2.30;;
23206;SDS011;11773;52.570;13.052;2023-03-17T01:52:12;2.53;;;1.93;;
23206;SDS011;11773;52.570;13.052;2023-03-17T01:54:49;3.83;;;2.40;;
23206;SDS011;11773;52.570;13.052;2023-03-17T01:57:30;2.87;;;2.20;;
23206;SDS011;11773;52.570;13.052;2023-03-17T02:00:11;2.63;;;2.10;;
23206;SDS011;11773;52.570;13.052;2023-03-17T02:02:46;2.90;;;2.17;;
23206;SDS011;11773;52.570;13.052;2023-03-17T02:05:21;3.03;;;2.70;;
23206;SDS011;11773;52.570;13.052;2023-03-17T02:07:57;3.37;;;2.63;;
23206;SDS011;11773;52.570;13.052;2023-03-17T02:10:27;3.77;;;2.90;;
23206;SDS011;11773;52.570;13.052;2023-03-17T02:12:58;3.40;;;2.60;;
23206;SDS011;11773;52.570;13.052;2023-03-17T02:15:41;4.23;;;2.87;;
23206;SDS011;11773;52.570;13.052;2023-03-17T02:18:15;4.03;;;2.50;;
23206;SDS011;11773;52.570;13.052;2023-03-17T02:23:43;4.53;;;3.03;;
23206;SDS011;11773;52.570;13.052;2023-03-17T02:26:12;3.63;;;2.53;;
23206;SDS011;11773;52.570;13.052;2023-03-17T02:28:42;3.70;;;2.70;;
23206;SDS011;11773;52.570;13.052;2023-03-17T02:31:12;3.13;;;2.57;;
23206;SDS011;11773;52.570;13.052;2023-03-17T02:33:42;3.97;;;2.63;;
23206;SDS011;11773;52.570;13.052;2023-03-17T02:36:11;5.27;;;2.97;;
23206;SDS011;11773;52.570;13.052;2023-03-17T02:38:41;4.20;;;2.83;;
23206;SDS011;11773;52.570;13.052;2023-03-17T02:41:11;3.87;;;2.30;;
23206;SDS011;11773;52.570;13.052;2023-03-17T02:43:40;3.10;;;2.30;;
23206;SDS011;11773;52.570;13.052;2023-03-17T02:46:10;3.97;;;2.70;;
23206;SDS011;11773;52.570;13.052;2023-03-17T02:48:39;3.20;;;2.47;;
23206;SDS011;11773;52.570;13.052;2023-03-17T02:51:09;2.37;;;2.10;;
23206;SDS011;11773;52.570;13.052;2023-03-17T02:53:39;3.13;;;2.67;;
23206;SDS011;11773;52.570;13.052;2023-03-17T02:56:09;3.30;;;2.47;;
23206;SDS011;11773;52.570;13.052;2023-03-17T02:58:39;2.37;;;2.13;;
23206;SDS011;11773;52.570;13.052;2023-03-17T03:01:08;4.00;;;2.70;;
23206;SDS011;11773;52.570;13.052;2023-03-17T03:03:38;2.27;;;2.00;;
23206;SDS011;11773;52.570;13.052;2023-03-17T03:06:08;2.53;;;2.10;;
23206;SDS011;11773;52.570;13.052;2023-03-17T03:08:37;2.60;;;1.90;;
23206;SDS011;11773;52.570;13.052;2023-03-17T03:11:07;3.23;;;1.90;;
23206;SDS011;11773;52.570;13.052;2023-03-17T03:13:36;2.30;;;1.90;;
23206;SDS011;11773;52.570;13.052;2023-03-17T03:16:06;2.30;;;1.90;;
23206;SDS011;11773;52.570;13.052;2023-03-17T03:18:36;2.47;;;1.87;;
23206;SDS011;11773;52.570;13.052;2023-03-17T03:21:05;2.37;;;1.97;;
23206;SDS011;11773;52.570;13.052;2023-03-17T03:23:36;2.60;;;2.40;;
23206;SDS011;11773;52.570;13.052;2023-03-17T03:26:06;2.47;;;2.17;;
23206;SDS011;11773;52.570;13.052;2023-03-17T03:28:35;2.83;;;2.50;;
23206;SDS011;11773;52.570;13.052;2023-03-17T03:31:05;2.83;;;2.27;;
23206;SDS011;11773;52.570;13.052;2023-03-17T03:33:35;4.43;;;2.80;;
23206;SDS011;11773;52.570;13.052;2023-03-17T03:36:05;2.67;;;2.20;;
23206;SDS011;11773;52.570;13.052;2023-03-17T03:38:35;2.63;;;2.30;;
23206;SDS011;11773;52.570;13.052;2023-03-17T03:41:05;2.70;;;2.20;;
23206;SDS011;11773;52.570;13.052;2023-03-17T03:43:35;2.40;;;2.03;;
23206;SDS011;11773;52.570;13.052;2023-03-17T03:46:04;2.30;;;2.10;;
23206;SDS011;11773;52.570;13.052;2023-03-17T03:48:34;2.20;;;2.00;;
23206;SDS011;11773;52.570;13.052;2023-03-17T03:51:04;2.40;;;2.20;;
23206;SDS011;11773;52.570;13.052;2023-03-17T03:53:33;3.97;;;2.63;;
23206;SDS011;11773;52.570;13.052;2023-03-17T03:56:03;2.43;;;2.00;;
23206;SDS011;11773;52.570;13.052;2023-03-17T03:58:33;3.47;;;2.50;;
23206;SDS011;11773;52.570;13.052;2023-03-17T04:01:03;3.23;;;2.40;;
23206;SDS011;11773;52.570;13.052;2023-03-17T04:03:36;2.67;;;2.20;;
23206;SDS011;11773;52.570;13.052;2023-03-17T04:06:06;2.93;;;2.23;;
23206;SDS011;11773;52.570;13.052;2023-03-17T04:08:37;2.80;;;2.33;;
23206;SDS011;11773;52.570;13.052;2023-03-17T04:11:06;2.77;;;2.20;;
23206;SDS011;11773;52.570;13.052;2023-03-17T04:13:35;3.90;;;2.70;;
23206;SDS011;11773;52.570;13.052;2023-03-17T04:16:05;4.27;;;2.87;;
23206;SDS011;11773;52.570;13.052;2023-03-17T04:18:35;3.63;;;2.53;;
23206;SDS011;11773;52.570;13.052;2023-03-17T04:21:04;3.77;;;2.50;;
23206;SDS011;11773;52.570;13.052;2023-03-17T04:23:34;3.27;;;2.30;;
23206;SDS011;11773;52.570;13.052;2023-03-17T04:26:03;4.00;;;2.40;;
23206;SDS011;11773;52.570;13.052;2023-03-17T04:28:33;4.00;;;2.50;;
23206;SDS011;11773;52.570;13.052;2023-03-17T04:31:03;2.67;;;2.27;;
23206;SDS011;11773;52.570;13.052;2023-03-17T04:33:33;2.90;;;2.30;;
23206;SDS011;11773;52.570;13.052;2023-03-17T04:36:03;2.93;;;2.33;;
23206;SDS011;11773;52.570;13.052;2023-03-17T04:38:33;4.47;;;3.10;;
23206;SDS011;11773;52.570;13.052;2023-03-17T04:41:03;2.83;;;2.43;;
23206;SDS011;11773;52.570;13.052;2023-03-17T04:43:32;2.43;;;2.20;;
23206;SDS011;11773;52.570;13.052;2023-03-17T04:46:02;3.17;;;2.47;;
23206;SDS011;11773;52.570;13.052;2023-03-17T04:48:32;2.80;;;2.50;;
23206;SDS011;11773;52.570;13.052;2023-03-17T04:51:02;3.57;;;2.70;;
23206;SDS011;11773;52.570;13.052;2023-03-17T04:53:32;3.53;;;2.93;;
23206;SDS011;11773;52.570;13.052;2023-03-17T04:56:01;3.47;;;2.80;;
23206;SDS011;11773;52.570;13.052;2023-03-17T04:58:31;3.37;;;2.97;;
23206;SDS011;11773;52.570;13.052;2023-03-17T05:01:01;2.75;;;2.52;;
23206;SDS011;11773;52.570;13.052;2023-03-17T05:03:31;3.20;;;2.57;;
23206;SDS011;11773;52.570;13.052;2023-03-17T05:06:01;3.67;;;2.70;;
23206;SDS011;11773;52.570;13.052;2023-03-17T05:08:32;4.90;;;2.97;;
23206;SDS011;11773;52.570;13.052;2023-03-17T05:11:01;3.27;;;2.97;;
23206;SDS011;11773;52.570;13.052;2023-03-17T05:13:31;2.37;;;2.17;;
23206;SDS011;11773;52.570;13.052;2023-03-17T05:16:00;4.97;;;3.50;;
23206;SDS011;11773;52.570;13.052;2023-03-17T05:18:30;4.10;;;2.53;;
23206;SDS011;11773;52.570;13.052;2023-03-17T05:21:00;4.17;;;2.50;;
23206;SDS011;11773;52.570;13.052;2023-03-17T05:23:29;3.63;;;2.40;;
23206;SDS011;11773;52.570;13.052;2023-03-17T05:25:58;4.20;;;2.70;;
23206;SDS011;11773;52.570;13.052;2023-03-17T05:28:28;3.43;;;2.50;;
23206;SDS011;11773;52.570;13.052;2023-03-17T05:30:58;4.00;;;2.70;;
23206;SDS011;11773;52.570;13.052;2023-03-17T05:33:28;4.30;;;3.00;;
23206;SDS011;11773;52.570;13.052;2023-03-17T05:35:58;4.13;;;2.77;;
23206;SDS011;11773;52.570;13.052;2023-03-17T05:38:27;3.30;;;2.50;;
23206;SDS011;11773;52.570;13.052;2023-03-17T05:40:56;4.33;;;2.80;;
23206;SDS011;11773;52.570;13.052;2023-03-17T05:43:26;2.97;;;2.67;;
23206;SDS011;11773;52.570;13.052;2023-03-17T05:45:55;3.13;;;2.50;;
23206;SDS011;11773;52.570;13.052;2023-03-17T05:48:25;3.90;;;3.00;;
23206;SDS011;11773;52.570;13.052;2023-03-17T05:50:54;3.23;;;2.87;;
23206;SDS011;11773;52.570;13.052;2023-03-17T05:53:24;4.17;;;2.97;;
23206;SDS011;11773;52.570;13.052;2023-03-17T05:55:54;3.10;;;2.63;;
23206;SDS011;11773;52.570;13.052;2023-03-17T05:58:23;3.57;;;2.70;;
23206;SDS011;11773;52.570;13.052;2023-03-17T06:00:53;4.13;;;3.20;;
23206;SDS011;11773;52.570;13.052;2023-03-17T06:03:22;4.50;;;3.10;;
23206;SDS011;11773;52.570;13.052;2023-03-17T06:05:52;5.23;;;3.53;;
23206;SDS011;11773;52.570;13.052;2023-03-17T06:08:21;3.93;;;2.90;;
23206;SDS011;11773;52.570;13.052;2023-03-17T06:10:51;3.53;;;2.80;;
23206;SDS011;11773;52.570;13.052;2023-03-17T06:13:20;2.90;;;2.60;;
23206;SDS011;11773;52.570;13.052;2023-03-17T06:15:50;5.37;;;2.77;;
23206;SDS011;11773;52.570;13.052;2023-03-17T06:18:19;3.30;;;2.80;;
23206;SDS011;11773;52.570;13.052;2023-03-17T06:20:49;4.43;;;3.13;;
23206;SDS011;11773;52.570;13.052;2023-03-17T06:23:18;4.47;;;2.93;;
23206;SDS011;11773;52.570;13.052;2023-03-17T06:25:49;3.17;;;2.50;;
23206;SDS011;11773;52.570;13.052;2023-03-17T06:28:19;4.57;;;2.90;;
23206;SDS011;11773;52.570;13.052;2023-03-17T06:30:49;4.50;;;2.83;;
23206;SDS011;11773;52.570;13.052;2023-03-17T06:33:18;3.20;;;2.30;;
23206;SDS011;11773;52.570;13.052;2023-03-17T06:35:48;3.37;;;2.10;;
23206;SDS011;11773;52.570;13.052;2023-03-17T06:38:18;3.10;;;2.20;;
23206;SDS011;11773;52.570;13.052;2023-03-17T06:40:47;3.20;;;2.37;;
23206;SDS011;11773;52.570;13.052;2023-03-17T06:43:17;3.00;;;2.33;;
23206;SDS011;11773;52.570;13.052;2023-03-17T06:45:48;2.63;;;2.17;;
23206;SDS011;11773;52.570;13.052;2023-03-17T06:48:18;4.20;;;2.60;;
23206;SDS011;11773;52.570;13.052;2023-03-17T06:50:49;4.00;;;2.67;;
23206;SDS011;11773;52.570;13.052;2023-03-17T06:53:18;2.30;;;2.10;;
23206;SDS011;11773;52.570;13.052;2023-03-17T06:55:48;3.17;;;2.30;;
23206;SDS011;11773;52.570;13.052;2023-03-17T06:58:18;4.07;;;2.67;;
23206;SDS011;11773;52.570;13.052;2023-03-17T07:00:47;3.70;;;3.07;;
23206;SDS011;11773;52.570;13.052;2023-03-17T07:03:19;3.30;;;2.57;;
23206;SDS011;11773;52.570;13.052;2023-03-17T07:05:50;2.13;;;1.93;;
23206;SDS011;11773;52.570;13.052;2023-03-17T07:08:20;3.73;;;3.20;;
23206;SDS011;11773;52.570;13.052;2023-03-17T07:10:50;3.60;;;2.70;;
23206;SDS011;11773;52.570;13.052;2023-03-17T07:13:24;3.33;;;2.43;;
23206;SDS011;11773;52.570;13.052;2023-03-17T07:15:54;2.70;;;2.00;;
23206;SDS011;11773;52.570;13.052;2023-03-17T07:18:25;2.93;;;2.43;;
23206;SDS011;11773;52.570;13.052;2023-03-17T07:20:57;3.07;;;2.30;;
23206;SDS011;11773;52.570;13.052;2023-03-17T07:23:28;3.40;;;2.03;;
23206;SDS011;11773;52.570;13.052;2023-03-17T07:25:57;3.50;;;2.30;;
23206;SDS011;11773;52.570;13.052;2023-03-17T07:28:27;3.07;;;2.60;;
23206;SDS011;11773;52.570;13.052;2023-03-17T07:30:56;4.50;;;2.50;;
23206;SDS011;11773;52.570;13.052;2023-03-17T07:33:28;3.27;;;2.73;;
23206;SDS011;11773;52.570;13.052;2023-03-17T07:35:59;2.63;;;2.40;;
23206;SDS011;11773;52.570;13.052;2023-03-17T07:38:29;3.00;;;2.40;;
23206;SDS011;11773;52.570;13.052;2023-03-17T07:40:58;3.33;;;2.63;;
23206;SDS011;11773;52.570;13.052;2023-03-17T07:43:29;3.33;;;2.47;;
23206;SDS011;11773;52.570;13.052;2023-03-17T07:45:59;3.43;;;2.53;;
23206;SDS011;11773;52.570;13.052;2023-03-17T07:48:30;3.60;;;2.60;;
23206;SDS011;11773;52.570;13.052;2023-03-17T07:51:01;3.40;;;2.43;;
23206;SDS011;11773;52.570;13.052;2023-03-17T07:53:31;2.80;;;2.50;;
23206;SDS011;11773;52.570;13.052;2023-03-17T07:56:01;3.17;;;2.40;;
23206;SDS011;11773;52.570;13.052;2023-03-17T07:58:30;3.83;;;2.73;;
23206;SDS011;11773;52.570;13.052;2023-03-17T08:01:00;2.80;;;2.30;;
23206;SDS011;11773;52.570;13.052;2023-03-17T08:03:30;3.57;;;2.50;;
23206;SDS011;11773;52.570;13.052;2023-03-17T08:06:00;3.27;;;2.80;;
23206;SDS011;11773;52.570;13.052;2023-03-17T08:08:32;4.70;;;3.00;;
23206;SDS011;11773;52.570;13.052;2023-03-17T08:11:02;3.10;;;2.80;;
23206;SDS011;11773;52.570;13.052;2023-03-17T08:13:33;2.67;;;2.33;;
23206;SDS011;11773;52.570;13.052;2023-03-17T08:16:03;3.33;;;2.90;;
23206;SDS011;11773;52.570;13.052;2023-03-17T08:18:33;3.60;;;2.93;;
23206;SDS011;11773;52.570;13.052;2023-03-17T08:21:03;4.33;;;2.93;;
23206;SDS011;11773;52.570;13.052;2023-03-17T08:23:32;3.23;;;2.63;;
23206;SDS011;11773;52.570;13.052;2023-03-17T08:26:02;3.60;;;2.73;;
23206;SDS011;11773;52.570;13.052;2023-03-17T08:28:32;3.33;;;2.87;;
23206;SDS011;11773;52.570;13.052;2023-03-17T08:31:07;2.97;;;2.67;;
23206;SDS011;11773;52.570;13.052;2023-03-17T08:33:46;3.03;;;2.70;;
23206;SDS011;11773;52.570;13.052;2023-03-17T08:36:19;4.40;;;3.30;;
23206;SDS011;11773;52.570;13.052;2023-03-17T08:38:50;3.23;;;2.70;;
23206;SDS011;11773;52.570;13.052;2023-03-17T08:41:21;2.60;;;2.00;;
23206;SDS011;11773;52.570;13.052;2023-03-17T08:43:54;2.57;;;2.37;;
23206;SDS011;11773;52.570;13.052;2023-03-17T08:46:29;2.50;;;2.30;;
23206;SDS011;11773;52.570;13.052;2023-03-17T08:48:58;2.17;;;1.93;;
23206;SDS011;11773;52.570;13.052;2023-03-17T08:51:30;3.27;;;2.63;;
23206;SDS011;11773;52.570;13.052;2023-03-17T08:54:02;4.40;;;3.10;;
23206;SDS011;11773;52.570;13.052;2023-03-17T08:56:33;4.00;;;3.00;;
23206;SDS011;11773;52.570;13.052;2023-03-17T08:59:04;2.83;;;2.53;;
23206;SDS011;11773;52.570;13.052;2023-03-17T09:01:35;3.00;;;2.62;;
23206;SDS011;11773;52.570;13.052;2023-03-17T09:04:06;4.00;;;2.77;;
23206;SDS011;11773;52.570;13.052;2023-03-17T09:06:35;3.13;;;2.53;;
23206;SDS011;11773;52.570;13.052;2023-03-17T09:09:06;3.43;;;2.63;;
23206;SDS011;11773;52.570;13.052;2023-03-17T09:11:36;2.73;;;2.30;;
23206;SDS011;11773;52.570;13.052;2023-03-17T09:14:06;2.60;;;2.40;;
23206;SDS011;11773;52.570;13.052;2023-03-17T09:16:35;3.10;;;2.50;;
23206;SDS011;11773;52.570;13.052;2023-03-17T09:19:05;4.10;;;3.23;;
23206;SDS011;11773;52.570;13.052;2023-03-17T09:21:34;4.43;;;3.20;;
23206;SDS011;11773;52.570;13.052;2023-03-17T09:24:04;3.30;;;2.80;;
23206;SDS011;11773;52.570;13.052;2023-03-17T09:26:34;3.77;;;2.87;;
23206;SDS011;11773;52.570;13.052;2023-03-17T09:29:04;2.87;;;2.50;;
23206;SDS011;11773;52.570;13.052;2023-03-17T09:31:35;2.63;;;2.30;;
23206;SDS011;11773;52.570;13.052;2023-03-17T09:34:05;3.37;;;2.47;;
23206;SDS011;11773;52.570;13.052;2023-03-17T09:36:34;3.00;;;2.50;;
23206;SDS011;11773;52.570;13.052;2023-03-17T09:39:04;2.40;;;1.93;;
23206;SDS011;11773;52.570;13.052;2023-03-17T09:47:21;3.67;;;2.60;;
23206;SDS011;11773;52.570;13.052;2023-03-17T09:50:03;5.77;;;3.00;;
23206;SDS011;11773;52.570;13.052;2023-03-17T09:52:38;2.47;;;2.23;;
23206;SDS011;11773;52.570;13.052;2023-03-17T09:55:09;3.33;;;2.70;;
23206;SDS011;11773;52.570;13.052;2023-03-17T09:57:45;2.83;;;2.23;;
23206;SDS011;11773;52.570;13.052;2023-03-17T10:00:19;3.60;;;2.33;;
23206;SDS011;11773;52.570;13.052;2023-03-17T10:02:54;2.70;;;2.33;;
23206;SDS011;11773;52.570;13.052;2023-03-17T10:05:30;3.97;;;2.67;;
23206;SDS011;11773;52.570;13.052;2023-03-17T10:08:14;3.00;;;2.50;;
23206;SDS011;11773;52.570;13.052;2023-03-17T10:11:05;3.03;;;2.60;;
23206;SDS011;11773;52.570;13.052;2023-03-17T10:25:24;3.03;;;2.27;;
23206;SDS011;11773;52.570;13.052;2023-03-17T10:28:09;2.40;;;2.20;;
23206;SDS011;11773;52.570;13.052;2023-03-17T10:31:12;3.63;;;2.00;;
23206;SDS011;11773;52.570;13.052;2023-03-17T10:33:46;2.43;;;2.03;;
23206;SDS011;11773;52.570;13.052;2023-03-17T10:36:31;3.23;;;2.43;;
23206;SDS011;11773;52.570;13.052;2023-03-17T10:39:09;2.30;;;1.90;;
23206;SDS011;11773;52.570;13.052;2023-03-17T10:42:06;2.73;;;2.00;;
23206;SDS011;11773;52.570;13.052;2023-03-17T10:44:43;2.07;;;1.87;;
23206;SDS011;11773;52.570;13.052;2023-03-17T10:47:32;2.23;;;1.83;;
23206;SDS011;11773;52.570;13.052;2023-03-17T10:52:59;3.63;;;2.50;;
23206;SDS011;11773;52.570;13.052;2023-03-17T10:55:42;2.97;;;2.47;;
23206;SDS011;11773;52.570;13.052;2023-03-17T10:58:20;3.90;;;2.17;;
23206;SDS011;11773;52.570;13.052;2023-03-17T11:01:15;2.23;;;2.03;;
23206;SDS011;11773;52.570;13.052;2023-03-17T11:03:56;3.63;;;2.33;;
23206;SDS011;11773;52.570;13.052;2023-03-17T11:06:33;3.20;;;2.27;;
23206;SDS011;11773;52.570;13.052;2023-03-17T11:09:08;2.40;;;2.10;;
23206;SDS011;11773;52.570;13.052;2023-03-17T11:11:58;2.43;;;2.23;;
23206;SDS011;11773;52.570;13.052;2023-03-17T11:14:18;2.13;;;1.90;;
23206;SDS011;11773;52.570;13.052;2023-03-17T11:16:52;2.40;;;2.20;;
23206;SDS011;11773;52.570;13.052;2023-03-17T11:22:34;3.03;;;2.27;;
23206;SDS011;11773;52.570;13.052;2023-03-17T11:25:11;2.40;;;2.20;;
23206;SDS011;11773;52.570;13.052;2023-03-17T11:27:47;2.47;;;2.00;;
23206;SDS011;11773;52.570;13.052;2023-03-17T11:30:30;3.07;;;2.50;;
23206;SDS011;11773;52.570;13.052;2023-03-17T11:33:18;2.63;;;2.13;;
23206;SDS011;11773;52.570;13.052;2023-03-17T11:36:22;2.37;;;2.17;;
23206;SDS011;11773;52.570;13.052;2023-03-17T11:39:18;2.37;;;1.87;;
23206;SDS011;11773;52.570;13.052;2023-03-17T11:42:08;2.83;;;2.10;;
23206;SDS011;11773;52.570;13.052;2023-03-17T11:45:12;2.37;;;2.10;;
23206;SDS011;11773;52.570;13.052;2023-03-17T11:50:58;4.47;;;3.03;;
23206;SDS011;11773;52.570;13.052;2023-03-17T11:53:55;2.33;;;2.00;;
23206;SDS011;11773;52.570;13.052;2023-03-17T11:56:50;2.93;;;2.13;;
23206;SDS011;11773;52.570;13.052;2023-03-17T11:59:41;2.60;;;2.20;;
23206;SDS011;11773;52.570;13.052;2023-03-17T12:05:12;3.27;;;2.83;;
23206;SDS011;11773;52.570;13.052;2023-03-17T12:07:50;2.47;;;2.10;;
23206;SDS011;11773;52.570;13.052;2023-03-17T12:10:35;2.30;;;2.03;;
23206;SDS011;11773;52.570;13.052;2023-03-17T12:13:08;4.07;;;2.90;;
23206;SDS011;11773;52.570;13.052;2023-03-17T12:15:55;2.73;;;2.33;;
23206;SDS011;11773;52.570;13.052;2023-03-17T12:18:58;2.30;;;2.10;;
23206;SDS011;11773;52.570;13.052;2023-03-17T12:21:36;3.00;;;2.40;;
23206;SDS011;11773;52.570;13.052;2023-03-17T12:24:17;2.80;;;2.20;;
23206;SDS011;11773;52.570;13.052;2023-03-17T12:27:31;2.53;;;2.33;;
23206;SDS011;11773;52.570;13.052;2023-03-17T12:30:09;3.27;;;2.40;;
23206;SDS011;11773;52.570;13.052;2023-03-17T12:34:05;2.30;;;2.10;;
23206;SDS011;11773;52.570;13.052;2023-03-17T12:36:18;3.10;;;2.60;;
23206;SDS011;11773;52.570;13.052;2023-03-17T12:38:57;2.70;;;2.10;;
23206;SDS011;11773;52.570;13.052;2023-03-17T12:47:39;2.90;;;2.17;;
23206;SDS011;11773;52.570;13.052;2023-03-17T12:53:13;2.97;;;2.17;;
23206;SDS011;11773;52.570;13.052;2023-03-17T12:55:49;1.90;;;1.70;;
23206;SDS011;11773;52.570;13.052;2023-03-17T12:58:24;1.57;;;1.40;;
23206;SDS011;11773;52.570;13.052;2023-03-17T13:00:59;2.10;;;1.90;;
23206;SDS011;11773;52.570;13.052;2023-03-17T13:03:55;2.90;;;2.20;;
23206;SDS011;11773;52.570;13.052;2023-03-17T13:06:38;2.20;;;2.00;;
23206;SDS011;11773;52.570;13.052;2023-03-17T13:12:56;2.40;;;1.93;;
23206;SDS011;11773;52.570;13.052;2023-03-17T13:35:09;2.20;;;2.00;;
23206;SDS011;11773;52.570;13.052;2023-03-17T13:37:46;3.97;;;2.23;;
23206;SDS011;11773;52.570;13.052;2023-03-17T13:40:24;1.90;;;1.70;;
23206;SDS011;11773;52.570;13.052;2023-03-17T13:43:35;2.17;;;1.97;;
23206;SDS011;11773;52.570;13.052;2023-03-17T13:52:01;1.90;;;1.80;;
23206;SDS011;11773;52.570;13.052;2023-03-17T13:54:47;2.40;;;1.97;;
23206;SDS011;11773;52.570;13.052;2023-03-17T13:57:21;2.00;;;1.80;;
23206;SDS011;11773;52.570;13.052;2023-03-17T13:59:58;3.47;;;2.33;;
23206;SDS011;11773;52.570;13.052;2023-03-17T14:02:43;2.60;;;2.27;;
23206;SDS011;11773;52.570;13.052;2023-03-17T14:05:26;3.10;;;2.37;;
23206;SDS011;11773;52.570;13.052;2023-03-17T14:10:58;2.50;;;2.07;;
23206;SDS011;11773;52.570;13.052;2023-03-17T14:13:34;2.83;;;2.13;;
23206;SDS011;11773;52.570;13.052;2023-03-17T14:16:11;2.60;;;2.40;;
23206;SDS011;11773;52.570;13.052;2023-03-17T14:18:46;3.37;;;2.73;;
23206;SDS011;11773;52.570;13.052;2023-03-17T14:21:31;3.23;;;2.50;;
23206;SDS011;11773;52.570;13.052;2023-03-17T14:24:12;3.40;;;2.70;;
23206;SDS011;11773;52.570;13.052;2023-03-17T14:26:51;3.67;;;2.30;;
23206;SDS011;11773;52.570;13.052;2023-03-17T14:29:27;2.90;;;2.10;;
23206;SDS011;11773;52.570;13.052;2023-03-17T14:34:40;2.10;;;1.90;;
23206;SDS011;11773;52.570;13.052;2023-03-17T14:37:24;1.60;;;1.50;;
23206;SDS011;11773;52.570;13.052;2023-03-17T14:39:55;1.63;;;1.53;;
23206;SDS011;11773;52.570;13.052;2023-03-17T14:42:27;1.73;;;1.63;;
23206;SDS011;11773;52.570;13.052;2023-03-17T14:45:00;2.13;;;1.90;;
23206;SDS011;11773;52.570;13.052;2023-03-17T14:47:38;1.23;;;1.10;;
23206;SDS011;11773;52.570;13.052;2023-03-17T14:50:17;1.60;;;1.50;;
23206;SDS011;11773;52.570;13.052;2023-03-17T14:52:49;1.50;;;1.37;;
23206;SDS011;11773;52.570;13.052;2023-03-17T14:55:18;1.70;;;1.50;;
23206;SDS011;11773;52.570;13.052;2023-03-17T14:57:49;1.40;;;1.30;;
23206;SDS011;11773;52.570;13.052;2023-03-17T15:00:30;1.43;;;1.33;;
23206;SDS011;11773;52.570;13.052;2023-03-17T15:03:16;2.17;;;1.50;;
23206;SDS011;11773;52.570;13.052;2023-03-17T15:05:49;1.90;;;1.63;;
23206;SDS011;11773;52.570;13.052;2023-03-17T15:11:13;1.77;;;1.67;;
23206;SDS011;11773;52.570;13.052;2023-03-17T15:13:53;1.60;;;1.50;;
23206;SDS011;11773;52.570;13.052;2023-03-17T15:16:35;2.03;;;1.43;;
23206;SDS011;11773;52.570;13.052;2023-03-17T15:19:16;1.70;;;1.60;;
23206;SDS011;11773;52.570;13.052;2023-03-17T15:21:55;2.20;;;1.60;;
23206;SDS011;11773;52.570;13.052;2023-03-17T15:24:37;1.37;;;1.27;;
23206;SDS011;11773;52.570;13.052;2023-03-17T15:27:13;1.40;;;1.30;;
23206;SDS011;11773;52.570;13.052;2023-03-17T15:29:45;1.77;;;1.43;;
23206;SDS011;11773;52.570;13.052;2023-03-17T15:32:16;2.03;;;1.60;;
23206;SDS011;11773;52.570;13.052;2023-03-17T15:34:50;4.20;;;2.00;;
23206;SDS011;11773;52.570;13.052;2023-03-17T15:37:26;2.43;;;1.90;;
23206;SDS011;11773;52.570;13.052;2023-03-17T15:39:59;2.23;;;1.50;;
23206;SDS011;11773;52.570;13.052;2023-03-17T15:42:32;1.57;;;1.47;;
23206;SDS011;11773;52.570;13.052;2023-03-17T15:45:04;1.70;;;1.60;;
23206;SDS011;11773;52.570;13.052;2023-03-17T15:47:35;2.00;;;1.47;;
23206;SDS011;11773;52.570;13.052;2023-03-17T15:50:14;1.70;;;1.40;;
23206;SDS011;11773;52.570;13.052;2023-03-17T15:52:48;1.93;;;1.60;;
23206;SDS011;11773;52.570;13.052;2023-03-17T15:55:27;1.97;;;1.30;;
23206;SDS011;11773;52.570;13.052;2023-03-17T15:57:58;1.20;;;1.10;;
23206;SDS011;11773;52.570;13.052;2023-03-17T16:00:28;1.80;;;1.60;;
23206;SDS011;11773;52.570;13.052;2023-03-17T16:02:59;1.60;;;1.50;;
23206;SDS011;11773;52.570;13.052;2023-03-17T16:05:34;1.30;;;1.20;;
23206;SDS011;11773;52.570;13.052;2023-03-17T16:08:04;2.20;;;1.50;;
23206;SDS011;11773;52.570;13.052;2023-03-17T16:10:35;1.67;;;1.57;;
23206;SDS011;11773;52.570;13.052;2023-03-17T16:13:05;1.97;;;1.80;;
23206;SDS011;11773;52.570;13.052;2023-03-17T16:15:36;2.23;;;1.90;;
23206;SDS011;11773;52.570;13.052;2023-03-17T16:18:15;2.40;;;1.97;;
23206;SDS011;11773;52.570;13.052;2023-03-17T16:20:51;2.83;;;1.90;;
23206;SDS011;11773;52.570;13.052;2023-03-17T16:23:23;1.80;;;1.70;;
23206;SDS011;11773;52.570;13.052;2023-03-17T16:25:55;1.50;;;1.33;;
23206;SDS011;11773;52.570;13.052;2023-03-17T16:28:30;2.00;;;1.63;;
23206;SDS011;11773;52.570;13.052;2023-03-17T16:31:00;1.37;;;1.27;;